McKinnon, Wyoming
Current Conditions -  °F | °C
As of 8:55 AM on Sunday 23 Nov 2014 (Local Time) from KFBR Reporting Station
Overcast Overcast  
Wind Chill: 13°   Ceiling: 2000
Heat Index: 26°   Visibility: 10mi
Dew Point: 22°   Wind: 17mph
Humidity: 85%   Direction: 280°W
Pressure: 30.06"   Gusts: 22mph
Location:  41.03°N, 109.94°W
Report Text: KFBR 231555Z AUTO 28015G19KT 10SM OVC020 M03/M05 A3006 RMK AO2 T10321054
Loading
Personal Weather Stations






























Interactive Weather Map New forecast layout! Learn more

10-Day Weather Forecast

Advertisements
Track Severe Weather on mobile